createdAt,value
2019-05-01T00:01:37.660Z,9.50
2019-05-01T00:04:14.358Z,9.67
2019-05-01T00:06:51.300Z,9.13
2019-05-01T00:09:20.922Z,10.10
2019-05-01T00:11:50.246Z,9.47
2019-05-01T00:14:19.620Z,9.53
2019-05-01T00:16:49.627Z,9.30
2019-05-01T00:19:18.995Z,9.13
2019-05-01T00:21:48.411Z,8.57
2019-05-01T00:24:17.799Z,9.03
2019-05-01T00:26:47.192Z,8.83
2019-05-01T00:29:16.582Z,9.13
2019-05-01T00:31:45.889Z,8.70
2019-05-01T00:34:15.240Z,9.30
2019-05-01T00:36:44.741Z,8.90
2019-05-01T00:39:14.368Z,8.77
2019-05-01T00:41:43.677Z,7.90
2019-05-01T00:44:13.139Z,7.53
2019-05-01T00:46:42.355Z,7.53
2019-05-01T00:49:11.786Z,7.67
2019-05-01T00:51:41.167Z,7.33
2019-05-01T00:54:10.677Z,7.27
2019-05-01T00:56:44.404Z,6.50
2019-05-01T00:59:30.707Z,6.90
2019-05-01T01:02:07.649Z,6.80
2019-05-01T01:04:38.545Z,6.03
2019-05-01T01:07:07.913Z,6.63
2019-05-01T01:09:37.268Z,6.13
2019-05-01T01:12:06.737Z,6.20
2019-05-01T01:14:36.101Z,6.03
2019-05-01T01:17:05.525Z,6.10
2019-05-01T01:19:34.973Z,5.83
2019-05-01T01:22:04.478Z,6.00
2019-05-01T01:24:33.853Z,5.87
2019-05-01T01:27:05.006Z,5.67
2019-05-01T01:29:34.378Z,5.30
2019-05-01T01:32:04.471Z,5.43
2019-05-01T01:34:33.864Z,4.83
2019-05-01T01:37:03.229Z,5.60
2019-05-01T01:39:32.889Z,5.03
2019-05-01T01:42:02.803Z,5.23
2019-05-01T01:44:47.399Z,5.10
2019-05-01T01:47:17.249Z,5.10
2019-05-01T01:49:46.811Z,5.43
2019-05-01T01:52:16.464Z,5.13
2019-05-01T01:54:46.062Z,5.03
2019-05-01T01:57:15.929Z,5.07
2019-05-01T01:59:45.585Z,4.80
2019-05-01T02:02:22.444Z,5.00
2019-05-01T02:04:53.648Z,5.20
2019-05-01T02:07:23.101Z,4.70
2019-05-01T02:09:52.763Z,5.10
2019-05-01T02:12:22.713Z,5.40
2019-05-01T02:14:52.081Z,5.50
2019-05-01T02:17:21.695Z,5.30
2019-05-01T02:19:51.117Z,5.80
2019-05-01T02:22:20.475Z,5.07
2019-05-01T02:24:49.811Z,5.13
2019-05-01T02:27:21.147Z,5.40
2019-05-01T02:29:55.243Z,5.13
2019-05-01T02:32:29.132Z,5.07
2019-05-01T02:35:00.203Z,5.57
2019-05-01T02:37:31.511Z,5.37
2019-05-01T02:40:03.576Z,5.20
2019-05-01T02:42:35.365Z,5.70
2019-05-01T02:45:05.813Z,5.73
2019-05-01T02:47:37.783Z,5.93
2019-05-01T02:50:10.073Z,5.80
2019-05-01T02:52:41.941Z,5.93
2019-05-01T02:55:15.345Z,6.20
2019-05-01T02:57:47.030Z,5.83
2019-05-01T03:00:17.875Z,6.40
2019-05-01T03:02:47.876Z,6.37
2019-05-01T03:05:17.214Z,6.30
2019-05-01T03:07:46.872Z,6.43
2019-05-01T03:10:16.856Z,6.63
2019-05-01T03:12:49.155Z,6.93
2019-05-01T03:15:20.955Z,6.80
2019-05-01T03:17:52.565Z,7.13
2019-05-01T03:20:24.469Z,6.90
2019-05-01T03:23:12.436Z,7.07
2019-05-01T03:25:42.691Z,7.13
2019-05-01T03:28:12.922Z,7.13
2019-05-01T03:30:42.326Z,6.83
2019-05-01T03:33:11.676Z,6.97
2019-05-01T03:35:41.550Z,7.77
2019-05-01T03:38:11.398Z,7.23
2019-05-01T03:40:41.924Z,7.30
2019-05-01T03:43:12.899Z,7.60
2019-05-01T03:45:43.458Z,7.63
2019-05-01T03:48:13.134Z,7.20
2019-05-01T03:50:46.490Z,7.20
2019-05-01T03:53:14.046Z,6.87
2019-05-01T03:55:43.427Z,8.10
2019-05-01T03:58:12.812Z,7.27
2019-05-01T04:00:46.689Z,8.20
2019-05-01T04:03:23.524Z,8.40
2019-05-01T04:05:53.084Z,8.30
2019-05-01T04:08:22.552Z,8.57
2019-05-01T04:10:52.340Z,8.57
2019-05-01T04:13:21.865Z,8.40
2019-05-01T04:15:52.973Z,8.80
2019-05-01T04:18:22.689Z,9.50
2019-05-01T04:20:52.475Z,9.27
2019-05-01T04:23:22.249Z,9.80
2019-05-01T04:25:52.156Z,10.73
2019-05-01T04:28:39.608Z,9.60
2019-05-01T04:31:23.285Z,9.20
2019-05-01T04:33:54.893Z,9.57
2019-05-01T04:36:34.801Z,10.17
2019-05-01T04:39:06.693Z,9.23
2019-05-01T04:41:37.042Z,9.00
2019-05-01T04:44:06.952Z,7.93
2019-05-01T04:46:36.704Z,8.53
2019-05-01T04:49:06.457Z,8.53
2019-05-01T04:51:36.487Z,9.00
2019-05-01T04:54:06.033Z,8.70
2019-05-01T04:56:35.798Z,8.57
2019-05-01T04:59:05.681Z,8.40
2019-05-01T05:01:57.061Z,9.13
2019-05-01T05:04:27.091Z,9.07
2019-05-01T05:06:56.748Z,9.50
2019-05-01T05:09:39.921Z,9.27
2019-05-01T05:12:11.333Z,10.23
2019-05-01T05:14:43.407Z,9.63
2019-05-01T05:17:14.543Z,9.50
2019-05-01T05:19:44.124Z,9.90
2019-05-01T05:22:16.448Z,10.60
2019-05-01T05:24:45.850Z,11.07
2019-05-01T05:27:16.361Z,11.33
2019-05-01T05:29:47.900Z,11.57
2019-05-01T05:32:19.220Z,11.80
2019-05-01T05:34:50.479Z,12.37
2019-05-01T05:37:22.194Z,12.23
2019-05-01T05:39:52.940Z,12.30
2019-05-01T05:42:22.440Z,12.77
2019-05-01T05:44:51.816Z,12.87
2019-05-01T05:47:21.467Z,12.77
2019-05-01T05:49:51.660Z,12.53
2019-05-01T05:52:25.786Z,13.30
2019-05-01T05:55:08.140Z,13.13
2019-05-01T05:57:56.104Z,13.83
2019-05-01T06:00:44.595Z,12.80
2019-05-01T06:03:35.172Z,13.87
2019-05-01T06:06:17.793Z,14.40
2019-05-01T06:08:50.157Z,13.57
2019-05-01T06:11:40.096Z,14.53
2019-05-01T06:14:31.350Z,14.03
2019-05-01T06:17:07.533Z,13.80
2019-05-01T06:19:49.681Z,14.37
2019-05-01T06:22:20.641Z,14.13
2019-05-01T06:25:21.487Z,14.90
2019-05-01T06:27:44.778Z,14.83
2019-05-01T06:30:12.764Z,14.20
2019-05-01T06:32:42.472Z,13.67
2019-05-01T06:35:11.945Z,15.30
2019-05-01T06:38:02.247Z,14.70
2019-05-01T06:40:40.787Z,15.10
2019-05-01T06:43:27.258Z,16.17
2019-05-01T06:46:13.722Z,15.37
2019-05-01T06:48:53.376Z,15.47
2019-05-01T06:51:35.230Z,15.93
2019-05-01T06:54:11.325Z,16.77
2019-05-01T06:56:42.203Z,17.70
2019-05-01T06:59:12.640Z,17.73
2019-05-01T07:01:42.384Z,17.87
2019-05-01T07:04:14.184Z,19.37
2019-05-01T07:06:43.564Z,18.53
2019-05-01T07:09:17.286Z,18.40
2019-05-01T07:11:47.521Z,20.00
2019-05-01T07:14:17.605Z,20.60
2019-05-01T07:16:47.356Z,19.80
2019-05-01T07:19:18.326Z,20.30
2019-05-01T07:21:48.008Z,21.40
2019-05-01T07:24:17.811Z,22.23
2019-05-01T07:26:48.105Z,22.63
2019-05-01T07:29:22.647Z,22.07
2019-05-01T07:31:52.129Z,22.57
2019-05-01T07:34:25.789Z,22.87
2019-05-01T07:36:52.815Z,22.97
2019-05-01T07:39:22.336Z,23.47
2019-05-01T07:41:52.007Z,23.53
2019-05-01T07:44:35.181Z,23.33
2019-05-01T07:47:12.130Z,23.13
2019-05-01T07:49:57.093Z,23.23
2019-05-01T07:52:28.140Z,23.50
2019-05-01T07:54:58.219Z,24.07
2019-05-01T07:57:28.485Z,24.00
2019-05-01T08:00:03.109Z,23.43
2019-05-01T08:02:30.978Z,22.80
2019-05-01T08:05:04.946Z,23.80
2019-05-01T08:07:33.601Z,24.53
2019-05-01T08:10:03.024Z,25.17
2019-05-01T08:12:32.463Z,30.07
2019-05-01T08:15:02.860Z,25.87
2019-05-01T08:17:33.864Z,23.77
2019-05-01T08:20:21.076Z,24.50
2019-05-01T08:22:50.523Z,25.57
2019-05-01T08:25:19.945Z,24.33
2019-05-01T08:27:58.131Z,24.63
2019-05-01T08:30:32.170Z,23.57
2019-05-01T08:33:03.114Z,24.23
2019-05-01T08:35:36.518Z,24.10
2019-05-01T08:38:04.190Z,26.83
2019-05-01T08:40:33.686Z,25.33
2019-05-01T08:43:03.068Z,23.97
2019-05-01T08:45:50.626Z,24.67
2019-05-01T08:48:35.857Z,24.47
2019-05-01T08:51:05.294Z,23.57
2019-05-01T08:53:34.663Z,23.27
2019-05-01T08:56:04.122Z,24.20
2019-05-01T08:58:38.336Z,24.73
2019-05-01T09:01:10.768Z,26.30
2019-05-01T09:03:42.250Z,24.57
2019-05-01T09:06:13.979Z,24.27
2019-05-01T09:08:46.553Z,24.00
2019-05-01T09:11:15.913Z,23.97
2019-05-01T09:13:45.311Z,23.70
2019-05-01T09:16:14.858Z,23.73
2019-05-01T09:18:44.215Z,24.60
2019-05-01T09:21:13.751Z,25.27
2019-05-01T09:23:46.113Z,23.90
2019-05-01T09:26:18.992Z,24.27
2019-05-01T09:28:53.001Z,24.53
2019-05-01T09:31:24.012Z,24.80
2019-05-01T09:33:53.602Z,25.07
2019-05-01T09:36:23.116Z,24.77
2019-05-01T09:38:52.406Z,25.00
2019-05-01T09:41:21.801Z,24.50
2019-05-01T09:43:51.460Z,24.43
2019-05-01T09:46:22.763Z,24.87
2019-05-01T09:48:52.330Z,26.50
2019-05-01T09:51:29.731Z,25.43
2019-05-01T09:54:05.703Z,25.00
2019-05-01T09:56:35.036Z,24.23
2019-05-01T09:59:04.517Z,25.30
2019-05-01T10:01:34.281Z,24.67
2019-05-01T10:04:05.583Z,23.90
2019-05-01T10:06:34.745Z,23.30
2019-05-01T10:09:07.208Z,23.60
2019-05-01T10:11:40.596Z,24.30
2019-05-01T10:14:09.175Z,23.83
2019-05-01T10:16:38.574Z,24.00
2019-05-01T10:19:07.885Z,23.80
2019-05-01T10:21:37.254Z,23.70
2019-05-01T10:24:06.602Z,24.53
2019-05-01T10:26:37.621Z,24.47
2019-05-01T10:29:08.854Z,24.80
2019-05-01T10:31:56.203Z,24.17
2019-05-01T10:34:27.171Z,23.80
2019-05-01T10:36:56.607Z,23.83
2019-05-01T10:39:26.400Z,24.60
2019-05-01T10:41:55.739Z,24.63
2019-05-01T10:44:25.178Z,25.60
2019-05-01T10:46:54.567Z,26.50
2019-05-01T10:49:23.939Z,26.20
2019-05-01T10:51:53.307Z,26.10
2019-05-01T10:54:22.718Z,28.70
2019-05-01T10:56:52.259Z,25.97
2019-05-01T10:59:21.675Z,25.20
2019-05-01T11:01:55.068Z,24.57
2019-05-01T11:04:24.929Z,25.80
2019-05-01T11:06:54.313Z,24.83
2019-05-01T11:09:23.818Z,26.03
2019-05-01T11:11:53.305Z,26.10
2019-05-01T11:14:22.679Z,25.63
2019-05-01T11:16:52.193Z,24.50
2019-05-01T11:19:21.670Z,28.43
2019-05-01T11:21:53.427Z,25.53
2019-05-01T11:24:22.864Z,23.30
2019-05-01T11:26:52.329Z,23.10
2019-05-01T11:29:21.641Z,23.50
2019-05-01T11:31:58.753Z,23.63
2019-05-01T11:34:29.758Z,23.43
2019-05-01T11:37:06.893Z,21.73
2019-05-01T11:39:40.851Z,21.27
2019-05-01T11:42:13.653Z,21.53
2019-05-01T11:44:43.034Z,22.67
2019-05-01T11:47:12.527Z,21.70
2019-05-01T11:49:42.005Z,20.53
2019-05-01T11:52:11.309Z,19.47
2019-05-01T11:54:40.684Z,20.43
2019-05-01T11:57:10.102Z,19.87
2019-05-01T11:59:39.408Z,19.67
2019-05-01T12:02:08.770Z,19.90
2019-05-01T12:04:38.181Z,19.90
2019-05-01T12:07:07.536Z,19.60
2019-05-01T12:09:36.910Z,19.40
2019-05-01T12:12:07.965Z,20.57
2019-05-01T12:14:37.250Z,19.90
2019-05-01T12:17:08.181Z,19.53
2019-05-01T12:19:37.529Z,20.17
2019-05-01T12:22:06.960Z,19.83
2019-05-01T12:24:36.353Z,20.53
2019-05-01T12:27:05.961Z,20.93
2019-05-01T12:29:35.383Z,22.67
2019-05-01T12:32:04.856Z,21.43
2019-05-01T12:34:34.357Z,20.50
2019-05-01T12:37:17.255Z,20.00
2019-05-01T12:39:47.700Z,19.23
2019-05-01T12:42:18.722Z,18.50
2019-05-01T12:44:48.084Z,19.03
2019-05-01T12:47:19.131Z,18.17
2019-05-01T12:49:50.148Z,19.90
2019-05-01T12:52:37.613Z,19.93
2019-05-01T12:55:26.011Z,20.10
2019-05-01T12:57:55.573Z,19.87
2019-05-01T13:00:50.443Z,19.50
2019-05-01T13:03:19.853Z,18.47
2019-05-01T13:05:49.157Z,19.77
2019-05-01T13:08:18.533Z,20.40
2019-05-01T13:10:49.339Z,22.37
2019-05-01T13:13:18.664Z,24.33
2019-05-01T13:15:48.057Z,29.93
2019-05-01T13:18:17.440Z,25.23
2019-05-01T13:20:46.816Z,26.50
2019-05-01T13:23:16.165Z,24.87
2019-05-01T13:25:46.243Z,29.73
2019-05-01T13:28:17.259Z,28.03
2019-05-01T13:30:48.458Z,31.00
2019-05-01T13:33:17.929Z,26.47
2019-05-01T13:35:47.222Z,25.60
2019-05-01T13:38:16.586Z,26.17
2019-05-01T13:40:46.832Z,29.87
2019-05-01T13:43:16.063Z,23.17
2019-05-01T13:45:45.476Z,11.17
2019-05-01T13:48:14.812Z,7.20
2019-05-01T13:50:44.187Z,8.00
2019-05-01T13:53:13.571Z,6.33
2019-05-01T13:55:43.077Z,8.30
2019-05-01T13:58:12.457Z,9.77
2019-05-01T14:00:41.828Z,9.30
2019-05-01T14:03:11.464Z,9.60
2019-05-01T14:05:40.914Z,9.47
2019-05-01T14:08:09.423Z,7.47
2019-05-01T14:10:38.632Z,7.00
2019-05-01T14:13:07.921Z,5.27
2019-05-01T14:15:37.284Z,4.93
2019-05-01T14:18:06.706Z,5.20
2019-05-01T14:20:37.701Z,4.97
2019-05-01T14:23:26.272Z,27.63
2019-05-01T14:26:08.567Z,5.70
2019-05-01T14:28:38.003Z,5.23
2019-05-01T14:31:07.612Z,7.20
2019-05-01T14:33:37.000Z,6.83
2019-05-01T14:36:06.989Z,6.80
2019-05-01T14:38:36.378Z,6.93
2019-05-01T14:41:05.821Z,7.27
2019-05-01T14:43:35.211Z,8.20
2019-05-01T14:46:04.685Z,8.07
2019-05-01T14:48:48.257Z,7.63
2019-05-01T14:51:17.605Z,8.47
2019-05-01T14:53:47.095Z,7.57
2019-05-01T14:56:16.470Z,6.80
2019-05-01T14:58:45.832Z,8.10
2019-05-01T15:01:15.210Z,7.40
2019-05-01T15:03:44.700Z,10.40
2019-05-01T15:06:14.048Z,8.10
2019-05-01T15:08:43.346Z,8.03
2019-05-01T15:11:12.756Z,9.57
2019-05-01T15:13:43.704Z,9.30
2019-05-01T15:16:26.761Z,12.63
2019-05-01T15:19:09.752Z,10.63
2019-05-01T15:21:39.236Z,9.23
2019-05-01T15:24:08.611Z,8.53
2019-05-01T15:26:38.038Z,7.20
2019-05-01T15:29:07.440Z,8.20
2019-05-01T15:31:36.954Z,8.50
2019-05-01T15:34:06.263Z,8.40
2019-05-01T15:36:35.862Z,9.80
2019-05-01T15:39:09.128Z,8.67
2019-05-01T15:41:56.724Z,7.53
2019-05-01T15:44:27.684Z,8.53
2019-05-01T15:46:57.033Z,8.27
2019-05-01T15:49:26.490Z,10.10
2019-05-01T15:51:56.014Z,16.40
2019-05-01T15:54:25.383Z,17.20
2019-05-01T15:56:55.008Z,13.27
2019-05-01T15:59:24.433Z,12.00
2019-05-01T16:01:53.929Z,11.57
2019-05-01T16:04:23.465Z,11.10
2019-05-01T16:06:52.966Z,9.17
2019-05-01T16:09:22.419Z,9.10
2019-05-01T16:12:09.493Z,9.00
2019-05-01T16:14:39.340Z,7.73
2019-05-01T16:17:08.686Z,7.50
2019-05-01T16:19:38.016Z,8.90
2019-05-01T16:22:07.484Z,12.37
2019-05-01T16:24:36.854Z,12.20
2019-05-01T16:27:06.192Z,19.83
2019-05-01T16:29:35.598Z,16.97
2019-05-01T16:32:05.456Z,13.03
2019-05-01T16:34:35.609Z,13.77
2019-05-01T16:37:05.098Z,14.10
2019-05-01T16:39:36.141Z,16.77
2019-05-01T16:42:05.595Z,16.13
2019-05-01T16:44:34.985Z,16.43
2019-05-01T16:47:04.548Z,15.57
2019-05-01T16:49:33.940Z,13.97
2019-05-01T16:52:03.343Z,15.63
2019-05-01T16:54:32.726Z,12.43
2019-05-01T16:57:02.100Z,17.57
2019-05-01T16:59:31.516Z,14.57
2019-05-01T17:02:02.802Z,16.60
2019-05-01T17:04:36.731Z,12.03
2019-05-01T17:07:16.601Z,11.63
2019-05-01T17:10:02.715Z,17.77
2019-05-01T17:12:34.139Z,31.20
2019-05-01T17:15:03.594Z,29.00
2019-05-01T17:17:33.861Z,50.07
2019-05-01T17:20:03.529Z,41.33
2019-05-01T17:22:32.803Z,40.70
2019-05-01T17:25:02.563Z,26.13
2019-05-01T17:27:31.927Z,28.70
2019-05-01T17:30:01.418Z,28.40
2019-05-01T17:32:30.786Z,24.50
2019-05-01T17:35:01.980Z,22.40
2019-05-01T17:37:31.371Z,24.37
2019-05-01T17:40:00.770Z,25.60
2019-05-01T17:42:33.022Z,18.30
2019-05-01T17:45:01.226Z,21.80
2019-05-01T17:47:30.672Z,20.77
2019-05-01T17:49:59.974Z,34.90
2019-05-01T17:52:29.436Z,31.30
2019-05-01T17:55:01.238Z,24.73
2019-05-01T17:57:30.415Z,28.17
2019-05-01T18:00:01.513Z,31.03
2019-05-01T18:02:51.055Z,25.13
2019-05-01T18:05:22.024Z,33.47
2019-05-01T18:07:51.506Z,27.33
2019-05-01T18:10:20.895Z,28.60
2019-05-01T18:12:50.298Z,27.93
2019-05-01T18:15:19.870Z,24.70
2019-05-01T18:17:49.349Z,25.27
2019-05-01T18:20:19.562Z,24.17
2019-05-01T18:23:08.512Z,22.77
2019-05-01T18:25:42.305Z,20.83
2019-05-01T18:28:19.415Z,26.57
2019-05-01T18:30:51.619Z,26.47
2019-05-01T18:33:22.047Z,27.17
2019-05-01T18:35:51.606Z,29.13
2019-05-01T18:38:28.660Z,21.97
2019-05-01T18:40:59.679Z,32.70
2019-05-01T18:43:32.240Z,25.87
2019-05-01T18:46:01.083Z,27.60
2019-05-01T18:48:30.468Z,25.03
2019-05-01T18:50:59.870Z,26.73
2019-05-01T18:53:29.302Z,25.00
2019-05-01T18:56:01.474Z,28.53
2019-05-01T18:58:31.479Z,32.87
2019-05-01T19:01:03.943Z,24.47
2019-05-01T19:03:32.264Z,28.50
2019-05-01T19:06:01.801Z,29.70
2019-05-01T19:08:31.215Z,25.50
2019-05-01T19:11:11.786Z,22.60
2019-05-01T19:13:32.148Z,19.53
2019-05-01T19:16:03.437Z,26.23
2019-05-01T19:18:32.683Z,21.57
2019-05-01T19:21:02.060Z,22.10
2019-05-01T19:23:33.219Z,22.23
2019-05-01T19:26:06.463Z,22.27
2019-05-01T19:28:34.289Z,18.83
2019-05-01T19:31:03.849Z,20.50
2019-05-01T19:33:33.255Z,22.97
2019-05-01T19:36:08.347Z,21.53
2019-05-01T19:38:34.787Z,20.50
2019-05-01T19:41:08.908Z,22.17
2019-05-01T19:43:40.750Z,21.63
2019-05-01T19:46:08.263Z,21.63
2019-05-01T19:48:37.650Z,21.80
2019-05-01T19:51:07.046Z,22.43
2019-05-01T19:53:36.449Z,21.47
2019-05-01T19:56:06.027Z,23.17
2019-05-01T19:58:35.439Z,29.53
2019-05-01T20:01:06.125Z,23.37
2019-05-01T20:03:36.775Z,20.67
2019-05-01T20:06:08.203Z,20.07
2019-05-01T20:08:37.920Z,25.33
2019-05-01T20:11:09.517Z,19.83
2019-05-01T20:13:38.457Z,33.17
2019-05-01T20:16:09.260Z,21.50
2019-05-01T20:18:38.902Z,20.27
2019-05-01T20:21:08.456Z,21.50
2019-05-01T20:23:37.796Z,20.50
2019-05-01T20:26:08.181Z,20.00
2019-05-01T20:28:37.571Z,20.17
2019-05-01T20:31:07.131Z,21.60
2019-05-01T20:33:38.921Z,21.40
2019-05-01T20:36:07.572Z,19.90
2019-05-01T20:38:36.989Z,21.87
2019-05-01T20:41:10.437Z,20.03
2019-05-01T20:43:38.126Z,19.97
2019-05-01T20:46:08.584Z,21.30
2019-05-01T20:48:37.957Z,21.23
2019-05-01T20:51:07.373Z,22.53
2019-05-01T20:53:36.749Z,22.37
2019-05-01T20:56:07.759Z,18.83
2019-05-01T20:58:37.211Z,22.37
2019-05-01T21:01:06.747Z,17.33
2019-05-01T21:03:37.773Z,17.67
2019-05-01T21:06:09.199Z,18.80
2019-05-01T21:08:46.539Z,22.17
2019-05-01T21:11:17.777Z,23.57
2019-05-01T21:13:47.155Z,19.37
2019-05-01T21:16:17.825Z,23.20
2019-05-01T21:18:47.223Z,20.17
2019-05-01T21:21:16.631Z,18.70
2019-05-01T21:23:48.183Z,21.23
2019-05-01T21:26:17.146Z,20.80
2019-05-01T21:28:46.529Z,17.40
2019-05-01T21:31:15.898Z,16.83
2019-05-01T21:33:50.259Z,18.57
2019-05-01T21:36:16.404Z,16.90
2019-05-01T21:38:45.700Z,16.57
2019-05-01T21:41:16.942Z,16.90
2019-05-01T21:43:46.127Z,16.97
2019-05-01T21:46:15.686Z,14.70
2019-05-01T21:48:45.147Z,19.43
2019-05-01T21:51:14.558Z,18.13
2019-05-01T21:53:46.377Z,17.30
2019-05-01T21:56:15.184Z,18.00
2019-05-01T21:58:45.236Z,17.60
2019-05-01T22:01:14.852Z,17.37
2019-05-01T22:03:44.256Z,17.63
2019-05-01T22:06:15.420Z,16.70
2019-05-01T22:08:44.654Z,16.60
2019-05-01T22:11:13.953Z,15.77
2019-05-01T22:13:43.490Z,16.03
2019-05-01T22:16:18.482Z,17.00
2019-05-01T22:19:02.138Z,15.80
2019-05-01T22:21:41.973Z,17.10
2019-05-01T22:24:13.057Z,15.93
2019-05-01T22:26:44.069Z,16.67
2019-05-01T22:29:15.101Z,16.07
2019-05-01T22:32:02.282Z,16.13
2019-05-01T22:34:36.451Z,15.67
2019-05-01T22:37:05.968Z,14.17
2019-05-01T22:39:37.003Z,16.37
2019-05-01T22:42:06.498Z,14.53
2019-05-01T22:44:35.949Z,15.47
2019-05-01T22:47:10.247Z,15.57
2019-05-01T22:49:37.535Z,15.53
2019-05-01T22:52:06.896Z,15.33
2019-05-01T22:54:36.270Z,15.50
2019-05-01T22:57:05.673Z,14.83
2019-05-01T22:59:35.118Z,15.20
2019-05-01T23:02:06.556Z,15.50
2019-05-01T23:04:35.959Z,15.17
2019-05-01T23:07:05.415Z,15.87
2019-05-01T23:09:35.182Z,15.67
2019-05-01T23:12:04.583Z,14.97
2019-05-01T23:14:34.141Z,15.83
2019-05-01T23:17:11.287Z,15.03
2019-05-01T23:19:40.589Z,15.07
2019-05-01T23:22:10.223Z,16.07
2019-05-01T23:24:39.646Z,15.50
2019-05-01T23:27:09.042Z,15.77
2019-05-01T23:29:38.337Z,15.57
2019-05-01T23:32:07.905Z,16.80
2019-05-01T23:34:37.279Z,17.93
2019-05-01T23:37:06.654Z,17.57
2019-05-01T23:39:40.433Z,17.23
2019-05-01T23:42:07.057Z,17.43
2019-05-01T23:44:38.147Z,20.17
2019-05-01T23:47:08.404Z,23.23
2019-05-01T23:49:37.714Z,18.63
2019-05-01T23:52:07.163Z,19.53
2019-05-01T23:54:36.568Z,17.93
2019-05-01T23:57:05.955Z,18.63
2019-05-01T23:59:35.424Z,17.30
